Mi-jo II — WDA7765 — position and weather

sailwx.info

Track history (hours):
 
Tides and Currents Weather Stations Pressure Air Temp Water Temp Dewpoint Dewpoint Depression Visibility Wind Speed Wind Dir Waves Ship Positions

Mi-jo II

Owner: Scardigno, Michael J, Leonardo, NJ. More information available from US FCC via Universal Licensing System and Coast Guard Vessel Documentation Center.

Last reported at 2017-Aug-20 21:34 UTC. Time now 2017-Aug-20 23:12 UTC.
Position N 40°36' W 074°02'.

Length 20 m.

Type: Fishing. MMSI: 366846920.

Date/timePositionNaut miles runAvg speedWind from/ knotsBaromVisibWave heightAir tempDewpointWater temp
2017-Aug-20 21:34N 40°36' W 074°02'1 9.5
2017-Aug-20 21:30N 40°36' W 074°03'5 9.8
2017-Aug-20 21:00N 40°41' W 074°02'611.7
2017-Aug-20 20:28N 40°35' W 074°02'6 0.2
2017-Aug-19 19:22N 40°29' W 074°01'1 0.7
2017-Aug-19 17:26N 40°28' W 074°02'2 1.6
2017-Aug-19 16:11N 40°30' W 073°60'  
2017-Aug-16 17:05N 40°30' W 073°60'1 5.1
2017-Aug-16 16:54N 40°30' W 074°01'  
2017-Aug-12 19:23N 40°29' W 074°01'2 0.1
2017-Aug-12 01:43N 40°27' W 074°02'2 7.6
2017-Aug-12 01:29N 40°28' W 074°02'7 8.3
2017-Aug-12 00:37N 40°36' W 074°03'111.2
2017-Aug-12 00:30N 40°37' W 074°03'611.2
2017-Aug-12 00:00N 40°42' W 074°00'2 3.9
2017-Aug-11 23:30N 40°41' W 074°02'510.1
2017-Aug-11 23:00N 40°36' W 074°03'7 0.6
2017-Aug-11 11:37N 40°30' W 073°59'112.0
2017-Aug-11 11:30N 40°29' W 074°00'  
Track history (hours):
 
Tides and Currents Weather Stations Pressure Air Temp Water Temp Dewpoint Dewpoint Depression Visibility Wind Speed Wind Dir Waves Ship Positions

Mi-jo II

Owner: Scardigno, Michael J, Leonardo, NJ. More information available from US FCC via Universal Licensing System and Coast Guard Vessel Documentation Center.

Last reported at 2017-Aug-20 21:34 UTC. Time now 2017-Aug-20 23:12 UTC.
Position N 40°36' W 074°02'.

Length 20 m.

Type: Fishing. MMSI: 366846920.

Date/timePositionNaut miles runAvg speedWind from/ knotsBaromVisibWave heightAir tempDewpointWater temp
2017-Aug-20 21:34N 40°36' W 074°02'1 9.5
2017-Aug-20 21:30N 40°36' W 074°03'5 9.8
2017-Aug-20 21:00N 40°41' W 074°02'611.7
2017-Aug-20 20:28N 40°35' W 074°02'6 0.2
2017-Aug-19 19:22N 40°29' W 074°01'1 0.7
2017-Aug-19 17:26N 40°28' W 074°02'2 1.6
2017-Aug-19 16:11N 40°30' W 073°60'  
2017-Aug-16 17:05N 40°30' W 073°60'1 5.1
2017-Aug-16 16:54N 40°30' W 074°01'  
2017-Aug-12 19:23N 40°29' W 074°01'2 0.1
2017-Aug-12 01:43N 40°27' W 074°02'2 7.6
2017-Aug-12 01:29N 40°28' W 074°02'7 8.3
2017-Aug-12 00:37N 40°36' W 074°03'111.2
2017-Aug-12 00:30N 40°37' W 074°03'611.2
2017-Aug-12 00:00N 40°42' W 074°00'2 3.9
2017-Aug-11 23:30N 40°41' W 074°02'510.1
2017-Aug-11 23:00N 40°36' W 074°03'7 0.6
2017-Aug-11 11:37N 40°30' W 073°59'112.0
2017-Aug-11 11:30N 40°29' W 074°00'  

Dump ship's entire track history